Terminal Aerodrome Forecast
Issued by NWS Tulsa, OK

Home | Current Version | Previous Version | Text Only | Print | Product List | Glossary On
Versions: 1 2 3 4 5 6 7 8 9 10 11 12 13 14 15 16 17 18 19 20
111
FTUS44 KTSA 312329
TAFTUL
TAF
KTUL 312329Z 0100/0124 VRB03KT P6SM VCSH BKN090 OVC250
     FM010900 36004KT P6SM OVC025
      TEMPO 0110/0114 OVC012
     FM011500 36005KT P6SM VCSH OVC015
     FM011800 02009KT P6SM OVC050=

USA.gov is the U.S. government's official web portal to all federal, state and local government web resources and services.